createdAt,value
2018-07-05T00:00:36.406Z,0.00
2018-07-05T00:01:36.332Z,0.00
2018-07-05T00:02:36.280Z,0.00
2018-07-05T00:03:36.190Z,0.00
2018-07-05T00:04:36.131Z,0.00
2018-07-05T00:05:36.054Z,0.00
2018-07-05T00:06:35.991Z,0.00
2018-07-05T00:07:35.916Z,0.00
2018-07-05T00:08:35.849Z,0.00
2018-07-05T00:09:35.776Z,0.00
2018-07-05T00:10:35.749Z,0.00
2018-07-05T00:11:35.627Z,0.00
2018-07-05T00:12:35.570Z,0.00
2018-07-05T00:13:35.492Z,0.00
2018-07-05T00:14:35.422Z,0.00
2018-07-05T00:15:35.352Z,0.00
2018-07-05T00:16:35.284Z,0.00
2018-07-05T00:17:35.249Z,0.00
2018-07-05T00:18:35.151Z,0.00
2018-07-05T00:19:35.072Z,0.00
2018-07-05T00:20:35.001Z,0.00
2018-07-05T00:21:34.950Z,0.00
2018-07-05T00:22:34.872Z,0.00
2018-07-05T00:23:34.805Z,0.00
2018-07-05T00:24:34.722Z,0.00
2018-07-05T00:25:34.649Z,0.00
2018-07-05T00:26:34.575Z,0.00
2018-07-05T00:27:34.521Z,0.00
2018-07-05T00:28:34.439Z,0.00
2018-07-05T00:29:34.371Z,0.00
2018-07-05T00:30:34.291Z,0.00
2018-07-05T00:31:34.230Z,0.00
2018-07-05T00:32:34.161Z,0.00
2018-07-05T00:33:34.084Z,0.00
2018-07-05T00:34:34.042Z,0.00
2018-07-05T00:35:33.952Z,0.00
2018-07-05T00:36:33.878Z,0.00
2018-07-05T00:37:33.813Z,0.00
2018-07-05T00:38:33.736Z,0.00
2018-07-05T00:39:33.680Z,0.00
2018-07-05T00:40:33.620Z,0.00
2018-07-05T00:41:33.691Z,0.00
2018-07-05T00:42:33.508Z,0.00
2018-07-05T00:43:33.417Z,0.00
2018-07-05T00:44:33.321Z,0.00
2018-07-05T00:45:33.298Z,0.00
2018-07-05T00:46:33.199Z,0.00
2018-07-05T00:47:33.108Z,0.00
2018-07-05T00:48:33.029Z,0.00
2018-07-05T00:49:32.966Z,0.00
2018-07-05T00:50:32.889Z,0.00
2018-07-05T00:51:32.826Z,0.00
2018-07-05T00:52:32.755Z,0.00
2018-07-05T00:53:32.676Z,0.00
2018-07-05T00:54:32.628Z,0.00
2018-07-05T00:55:32.555Z,0.00
2018-07-05T00:56:32.509Z,0.00
2018-07-05T00:57:32.395Z,0.00
2018-07-05T00:58:32.362Z,0.00
2018-07-05T00:59:32.252Z,0.00
2018-07-05T01:00:32.190Z,0.00
2018-07-05T01:01:32.127Z,0.00
2018-07-05T01:02:32.043Z,0.00
2018-07-05T01:03:32.000Z,0.00
2018-07-05T01:04:31.911Z,0.00
2018-07-05T01:05:31.833Z,0.00
2018-07-05T01:06:31.814Z,0.00
2018-07-05T01:07:31.694Z,0.00
2018-07-05T01:08:31.629Z,0.00
2018-07-05T01:09:31.556Z,0.00
2018-07-05T01:10:31.528Z,0.00
2018-07-05T01:11:31.422Z,0.00
2018-07-05T01:12:31.399Z,0.00
2018-07-05T01:13:31.273Z,0.00
2018-07-05T01:14:31.219Z,0.00
2018-07-05T01:15:31.140Z,0.00
2018-07-05T01:16:31.057Z,0.00
2018-07-05T01:17:31.016Z,0.00
2018-07-05T01:18:30.918Z,0.00
2018-07-05T01:19:30.852Z,0.00
2018-07-05T01:20:30.776Z,0.00
2018-07-05T01:21:30.698Z,0.00
2018-07-05T01:22:30.635Z,0.00
2018-07-05T01:23:30.598Z,0.00
2018-07-05T01:24:30.495Z,0.00
2018-07-05T01:25:30.433Z,0.00
2018-07-05T01:26:30.358Z,0.00
2018-07-05T01:27:30.287Z,0.00
2018-07-05T01:28:30.235Z,0.00
2018-07-05T01:29:30.161Z,0.00
2018-07-05T01:30:30.079Z,0.00
2018-07-05T01:31:30.026Z,0.00
2018-07-05T01:32:29.934Z,0.00
2018-07-05T01:33:29.863Z,0.00
2018-07-05T01:34:29.800Z,0.00
2018-07-05T01:35:29.714Z,0.00
2018-07-05T01:36:29.652Z,0.00
2018-07-05T01:37:29.581Z,0.00
2018-07-05T01:38:29.524Z,0.00
2018-07-05T01:39:29.456Z,0.00
2018-07-05T01:40:29.361Z,0.00
2018-07-05T01:41:29.312Z,0.00
2018-07-05T01:42:29.235Z,0.00
2018-07-05T01:43:29.178Z,0.00
2018-07-05T01:44:29.092Z,0.00
2018-07-05T01:45:29.009Z,0.00
2018-07-05T01:46:28.971Z,0.00
2018-07-05T01:47:28.880Z,0.00
2018-07-05T01:48:28.806Z,0.00
2018-07-05T01:49:28.755Z,0.00
2018-07-05T01:50:28.668Z,0.00
2018-07-05T01:51:28.622Z,0.00
2018-07-05T01:52:28.572Z,0.00
2018-07-05T01:53:28.448Z,0.00
2018-07-05T01:54:28.382Z,0.00
2018-07-05T01:55:28.313Z,0.00
2018-07-05T01:56:28.250Z,0.00
2018-07-05T01:57:28.195Z,0.00
2018-07-05T01:58:28.095Z,0.00
2018-07-05T01:59:28.018Z,0.00
2018-07-05T02:00:27.957Z,0.00
2018-07-05T02:01:27.877Z,0.00
2018-07-05T02:02:27.815Z,0.00
2018-07-05T02:03:27.738Z,0.00
2018-07-05T02:04:27.667Z,0.00
2018-07-05T02:05:27.609Z,0.00
2018-07-05T02:06:27.538Z,0.00
2018-07-05T02:07:27.479Z,0.00
2018-07-05T02:08:27.389Z,0.00
2018-07-05T02:09:27.372Z,0.00
2018-07-05T02:10:27.262Z,0.00
2018-07-05T02:11:27.187Z,0.00
2018-07-05T02:12:28.109Z,0.00
2018-07-05T02:13:27.031Z,0.00
2018-07-05T02:14:26.973Z,0.00
2018-07-05T02:15:26.887Z,0.00
2018-07-05T02:16:26.822Z,0.00
2018-07-05T02:17:26.752Z,0.00
2018-07-05T02:18:26.677Z,0.00
2018-07-05T02:19:26.621Z,0.00
2018-07-05T02:20:26.538Z,0.00
2018-07-05T02:21:26.469Z,0.00
2018-07-05T02:22:26.431Z,0.00
2018-07-05T02:23:26.355Z,0.00
2018-07-05T02:24:26.268Z,0.00
2018-07-05T02:25:26.201Z,0.00
2018-07-05T02:26:26.105Z,0.00
2018-07-05T02:27:26.100Z,0.00
2018-07-05T02:28:25.974Z,0.00
2018-07-05T02:29:25.923Z,0.00
2018-07-05T02:30:25.830Z,0.00
2018-07-05T02:31:25.769Z,0.00
2018-07-05T02:32:25.709Z,0.00
2018-07-05T02:33:25.626Z,0.00
2018-07-05T02:34:25.570Z,0.00
2018-07-05T02:35:25.490Z,0.00
2018-07-05T02:36:25.431Z,0.00
2018-07-05T02:37:25.343Z,0.00
2018-07-05T02:38:25.274Z,0.00
2018-07-05T02:39:25.205Z,0.00
2018-07-05T02:40:25.131Z,0.00
2018-07-05T02:41:25.051Z,0.00
2018-07-05T02:42:24.978Z,0.00
2018-07-05T02:43:24.938Z,0.00
2018-07-05T02:44:24.846Z,0.00
2018-07-05T02:45:24.774Z,0.00
2018-07-05T02:46:24.711Z,0.00
2018-07-05T02:47:24.645Z,0.00
2018-07-05T02:48:24.584Z,0.00
2018-07-05T02:49:24.499Z,0.00
2018-07-05T02:50:24.412Z,0.00
2018-07-05T02:51:24.353Z,0.00
2018-07-05T02:52:24.274Z,0.00
2018-07-05T02:53:24.209Z,0.00
2018-07-05T02:54:24.172Z,0.00
2018-07-05T02:55:24.071Z,0.00
2018-07-05T02:56:24.024Z,0.00
2018-07-05T02:57:24.462Z,0.00
2018-07-05T02:58:23.851Z,0.00
2018-07-05T02:59:23.796Z,0.00
2018-07-05T03:00:23.734Z,0.00
2018-07-05T03:01:23.651Z,0.00
2018-07-05T03:02:23.577Z,0.00
2018-07-05T03:03:23.498Z,0.00
2018-07-05T03:04:23.439Z,0.00
2018-07-05T03:05:23.391Z,0.00
2018-07-05T03:06:23.296Z,0.00
2018-07-05T03:07:23.216Z,0.00
2018-07-05T03:08:23.145Z,0.00
2018-07-05T03:09:23.073Z,0.00
2018-07-05T03:10:23.026Z,0.00
2018-07-05T03:11:22.945Z,0.00
2018-07-05T03:12:22.863Z,0.00
2018-07-05T03:13:22.815Z,0.00
2018-07-05T03:14:22.722Z,0.00
2018-07-05T03:15:22.653Z,0.00
2018-07-05T03:16:22.603Z,0.00
2018-07-05T03:17:22.516Z,0.00
2018-07-05T03:18:22.429Z,0.00
2018-07-05T03:19:22.358Z,0.00
2018-07-05T03:20:22.289Z,0.00
2018-07-05T03:21:22.242Z,0.00
2018-07-05T03:22:22.179Z,0.00
2018-07-05T03:23:22.105Z,0.00
2018-07-05T03:24:22.023Z,0.00
2018-07-05T03:25:21.943Z,0.00
2018-07-05T03:26:21.912Z,0.00
2018-07-05T03:27:21.793Z,0.00
2018-07-05T03:28:21.729Z,0.00
2018-07-05T03:29:21.654Z,5.63
2018-07-05T03:30:21.616Z,5.63
2018-07-05T03:31:21.518Z,5.63
2018-07-05T03:32:21.488Z,5.63
2018-07-05T03:33:21.368Z,5.63
2018-07-05T03:34:21.295Z,5.63
2018-07-05T03:35:21.226Z,5.63
2018-07-05T03:36:21.143Z,5.63
2018-07-05T03:37:21.094Z,5.63
2018-07-05T03:38:21.035Z,5.63
2018-07-05T03:39:20.960Z,5.63
2018-07-05T03:40:20.859Z,11.25
2018-07-05T03:41:20.830Z,11.25
2018-07-05T03:42:20.726Z,11.25
2018-07-05T03:43:20.666Z,11.25
2018-07-05T03:44:20.596Z,11.25
2018-07-05T03:45:20.531Z,11.25
2018-07-05T03:46:20.449Z,11.25
2018-07-05T03:47:20.384Z,11.25
2018-07-05T03:48:20.298Z,11.25
2018-07-05T03:49:20.231Z,16.88
2018-07-05T03:50:20.156Z,16.88
2018-07-05T03:51:20.095Z,16.88
2018-07-05T03:52:20.057Z,16.88
2018-07-05T03:53:19.966Z,16.88
2018-07-05T03:54:19.871Z,16.88
2018-07-05T03:55:19.831Z,16.88
2018-07-05T03:56:19.790Z,22.50
2018-07-05T03:57:19.673Z,22.50
2018-07-05T03:58:19.597Z,22.50
2018-07-05T03:59:19.545Z,28.13
2018-07-05T04:00:19.443Z,28.13
2018-07-05T04:01:19.405Z,28.13
2018-07-05T04:02:19.315Z,28.13
2018-07-05T04:03:19.229Z,28.13
2018-07-05T04:04:19.168Z,33.75
2018-07-05T04:05:19.120Z,33.75
2018-07-05T04:06:19.026Z,33.75
2018-07-05T04:07:18.951Z,33.75
2018-07-05T04:08:18.913Z,33.75
2018-07-05T04:09:18.806Z,39.38
2018-07-05T04:10:18.751Z,39.38
2018-07-05T04:11:18.687Z,39.38
2018-07-05T04:12:18.599Z,39.38
2018-07-05T04:13:18.523Z,39.38
2018-07-05T04:14:18.493Z,45.00
2018-07-05T04:15:18.399Z,45.00
2018-07-05T04:16:18.314Z,45.00
2018-07-05T04:17:18.278Z,45.00
2018-07-05T04:18:18.190Z,45.00
2018-07-05T04:19:18.108Z,45.00
2018-07-05T04:20:18.034Z,45.00
2018-07-05T04:21:17.951Z,45.00
2018-07-05T04:22:17.901Z,45.00
2018-07-05T04:23:17.823Z,45.00
2018-07-05T04:24:17.757Z,45.00
2018-07-05T04:25:17.684Z,45.00
2018-07-05T04:26:17.616Z,45.00
2018-07-05T04:27:17.536Z,50.63
2018-07-05T04:28:17.501Z,50.63
2018-07-05T04:29:17.404Z,50.63
2018-07-05T04:30:17.325Z,50.63
2018-07-05T04:31:17.277Z,50.63
2018-07-05T04:32:17.183Z,50.63
2018-07-05T04:33:17.136Z,50.63
2018-07-05T04:34:17.072Z,50.63
2018-07-05T04:35:16.983Z,50.63
2018-07-05T04:36:16.899Z,50.63
2018-07-05T04:37:16.841Z,50.63
2018-07-05T04:38:16.752Z,50.63
2018-07-05T04:39:16.710Z,50.63
2018-07-05T04:40:16.635Z,50.63
2018-07-05T04:41:16.557Z,50.63
2018-07-05T04:42:16.478Z,50.63
2018-07-05T04:43:16.407Z,56.25
2018-07-05T04:44:16.335Z,56.25
2018-07-05T04:45:16.280Z,61.88
2018-07-05T04:46:16.192Z,61.88
2018-07-05T04:47:16.129Z,61.88
2018-07-05T04:48:16.051Z,61.88
2018-07-05T04:49:15.992Z,61.88
2018-07-05T04:50:15.920Z,61.88
2018-07-05T04:51:15.846Z,61.88
2018-07-05T04:52:15.767Z,67.50
2018-07-05T04:53:15.699Z,67.50
2018-07-05T04:54:15.627Z,67.50
2018-07-05T04:55:15.606Z,67.50
2018-07-05T04:56:15.491Z,67.50
2018-07-05T04:57:15.420Z,73.13
2018-07-05T04:58:15.374Z,61.88
2018-07-05T04:59:15.289Z,67.50
2018-07-05T05:00:15.213Z,67.50
2018-07-05T05:01:15.130Z,61.88
2018-07-05T05:02:15.070Z,61.88
2018-07-05T05:03:14.988Z,67.50
2018-07-05T05:04:14.943Z,61.88
2018-07-05T05:05:14.885Z,67.50
2018-07-05T05:06:14.784Z,67.50
2018-07-05T05:07:14.735Z,67.50
2018-07-05T05:08:14.642Z,67.50
2018-07-05T05:09:14.588Z,67.50
2018-07-05T05:10:14.504Z,67.50
2018-07-05T05:11:14.427Z,73.13
2018-07-05T05:12:14.389Z,73.13
2018-07-05T05:13:14.339Z,73.13
2018-07-05T05:14:14.236Z,73.13
2018-07-05T05:15:14.159Z,73.13
2018-07-05T05:16:14.148Z,73.13
2018-07-05T05:17:14.036Z,73.13
2018-07-05T05:18:13.958Z,73.13
2018-07-05T05:19:13.886Z,73.13
2018-07-05T05:20:13.840Z,78.75
2018-07-05T05:21:13.734Z,78.75
2018-07-05T05:22:13.667Z,78.75
2018-07-05T05:23:13.620Z,78.75
2018-07-05T05:24:13.534Z,78.75
2018-07-05T05:25:13.462Z,78.75
2018-07-05T05:26:13.389Z,78.75
2018-07-05T05:27:13.339Z,78.75
2018-07-05T05:28:13.331Z,78.75
2018-07-05T05:29:13.203Z,78.75
2018-07-05T05:30:13.097Z,78.75
2018-07-05T05:31:13.040Z,78.75
2018-07-05T05:32:12.961Z,78.75
2018-07-05T05:33:12.895Z,78.75
2018-07-05T05:34:12.829Z,78.75
2018-07-05T05:35:12.752Z,90.00
2018-07-05T05:36:12.712Z,84.38
2018-07-05T05:37:12.626Z,84.38
2018-07-05T05:38:12.570Z,84.38
2018-07-05T05:39:12.486Z,84.38
2018-07-05T05:40:12.398Z,84.38
2018-07-05T05:41:12.353Z,84.38
2018-07-05T05:42:12.260Z,84.38
2018-07-05T05:43:12.190Z,84.38
2018-07-05T05:44:12.127Z,84.38
2018-07-05T05:45:12.048Z,90.00
2018-07-05T05:46:12.001Z,90.00
2018-07-05T05:47:11.913Z,90.00
2018-07-05T05:48:11.914Z,90.00
2018-07-05T05:49:11.772Z,90.00
2018-07-05T05:50:11.745Z,90.00
2018-07-05T05:51:11.669Z,90.00
2018-07-05T05:52:11.565Z,90.00
2018-07-05T05:53:11.504Z,95.63
2018-07-05T05:54:11.432Z,95.63
2018-07-05T05:55:11.360Z,95.63
2018-07-05T05:56:11.311Z,101.25
2018-07-05T05:57:11.259Z,101.25
2018-07-05T05:58:11.148Z,101.25
2018-07-05T05:59:11.080Z,101.25
2018-07-05T06:00:11.194Z,101.25
2018-07-05T06:01:10.963Z,101.25
2018-07-05T06:02:10.891Z,101.25
2018-07-05T06:03:10.906Z,106.88
2018-07-05T06:04:10.810Z,106.88
2018-07-05T06:05:10.815Z,106.88
2018-07-05T06:06:10.693Z,106.88
2018-07-05T06:07:10.526Z,106.88
2018-07-05T06:08:10.627Z,106.88
2018-07-05T06:09:10.387Z,106.88
2018-07-05T06:10:10.336Z,106.88
2018-07-05T06:11:10.251Z,106.88
2018-07-05T06:12:10.187Z,112.50
2018-07-05T06:13:10.136Z,112.50
2018-07-05T06:14:10.036Z,112.50
2018-07-05T06:15:09.963Z,112.50
2018-07-05T06:16:09.966Z,112.50
2018-07-05T06:17:09.836Z,112.50
2018-07-05T06:18:09.765Z,112.50
2018-07-05T06:19:09.697Z,112.50
2018-07-05T06:20:09.638Z,112.50
2018-07-05T06:21:09.559Z,112.50
2018-07-05T06:22:09.485Z,112.50
2018-07-05T06:23:09.507Z,112.50
2018-07-05T06:24:09.367Z,118.13
2018-07-05T06:25:09.297Z,118.13
2018-07-05T06:26:09.257Z,123.75
2018-07-05T06:27:09.159Z,118.13
2018-07-05T06:28:09.113Z,118.13
2018-07-05T06:29:09.033Z,123.75
2018-07-05T06:30:08.956Z,123.75
2018-07-05T06:31:08.877Z,129.38
2018-07-05T06:32:08.813Z,123.75
2018-07-05T06:33:08.755Z,123.75
2018-07-05T06:34:08.701Z,123.75
2018-07-05T06:35:08.667Z,129.38
2018-07-05T06:36:08.538Z,129.38
2018-07-05T06:37:08.475Z,129.38
2018-07-05T06:38:08.393Z,135.00
2018-07-05T06:39:08.324Z,135.00
2018-07-05T06:40:08.255Z,135.00
2018-07-05T06:41:08.180Z,135.00
2018-07-05T06:42:08.117Z,135.00
2018-07-05T06:43:08.041Z,135.00
2018-07-05T06:44:07.973Z,129.38
2018-07-05T06:45:07.904Z,129.38
2018-07-05T06:46:07.840Z,129.38
2018-07-05T06:47:07.784Z,129.38
2018-07-05T06:48:07.702Z,129.38
2018-07-05T06:49:07.633Z,118.13
2018-07-05T06:50:07.583Z,123.75
2018-07-05T06:51:07.497Z,129.38
2018-07-05T06:52:07.428Z,129.38
2018-07-05T06:53:07.452Z,123.75
2018-07-05T06:54:07.290Z,123.75
2018-07-05T06:55:07.232Z,123.75
2018-07-05T06:56:07.160Z,129.38
2018-07-05T06:57:07.088Z,129.38
2018-07-05T06:58:07.017Z,135.00
2018-07-05T06:59:06.990Z,135.00
2018-07-05T07:00:06.882Z,135.00
2018-07-05T07:01:06.816Z,135.00
2018-07-05T07:02:06.744Z,135.00
2018-07-05T07:03:06.680Z,140.63
2018-07-05T07:04:06.609Z,140.63
2018-07-05T07:05:06.538Z,140.63
2018-07-05T07:06:06.467Z,146.25
2018-07-05T07:07:06.402Z,146.25
2018-07-05T07:08:06.380Z,146.25
2018-07-05T07:09:06.283Z,151.88
2018-07-05T07:10:06.201Z,157.50
2018-07-05T07:11:06.130Z,157.50
2018-07-05T07:12:06.061Z,163.13
2018-07-05T07:13:05.995Z,163.13
2018-07-05T07:14:05.925Z,168.75
2018-07-05T07:15:05.865Z,168.75
2018-07-05T07:16:05.861Z,168.75
2018-07-05T07:17:05.724Z,174.38
2018-07-05T07:18:05.654Z,174.38
2018-07-05T07:19:05.596Z,174.38
2018-07-05T07:20:05.521Z,174.38
2018-07-05T07:21:05.454Z,174.38
2018-07-05T07:22:05.397Z,180.00
2018-07-05T07:23:05.317Z,180.00
2018-07-05T07:24:05.250Z,180.00
2018-07-05T07:25:05.181Z,185.63
2018-07-05T07:26:05.111Z,185.63
2018-07-05T07:27:05.044Z,185.63
2018-07-05T07:28:04.980Z,191.25
2018-07-05T07:29:04.913Z,196.88
2018-07-05T07:30:04.844Z,196.88
2018-07-05T07:31:04.777Z,196.88
2018-07-05T07:32:04.719Z,191.25
2018-07-05T07:33:04.644Z,185.63
2018-07-05T07:34:04.571Z,180.00
2018-07-05T07:35:04.504Z,180.00
2018-07-05T07:36:04.438Z,185.63
2018-07-05T07:37:04.367Z,185.63
2018-07-05T07:38:04.299Z,185.63
2018-07-05T07:39:04.233Z,185.63
2018-07-05T07:40:04.167Z,180.00
2018-07-05T07:41:04.100Z,185.63
2018-07-05T07:42:04.045Z,180.00
2018-07-05T07:43:03.965Z,185.63
2018-07-05T07:44:03.896Z,196.88
2018-07-05T07:45:03.851Z,196.88
2018-07-05T07:46:03.766Z,202.50
2018-07-05T07:47:03.700Z,208.13
2018-07-05T07:48:03.633Z,208.13
2018-07-05T07:49:03.568Z,213.75
2018-07-05T07:50:03.495Z,202.50
2018-07-05T07:51:03.434Z,202.50
2018-07-05T07:52:03.361Z,202.50
2018-07-05T07:53:03.298Z,191.25
2018-07-05T07:54:03.228Z,191.25
2018-07-05T07:55:03.163Z,191.25
2018-07-05T07:56:03.090Z,191.25
2018-07-05T07:57:03.026Z,196.88
2018-07-05T07:58:02.959Z,202.50
2018-07-05T07:59:02.937Z,219.38
2018-07-05T08:00:02.849Z,230.63
2018-07-05T08:01:02.774Z,230.63
2018-07-05T08:02:02.691Z,230.63
2018-07-05T08:03:02.624Z,236.25
2018-07-05T08:04:02.562Z,247.50
2018-07-05T08:05:02.488Z,258.75
2018-07-05T08:06:02.423Z,270.00
2018-07-05T08:07:02.357Z,270.00
2018-07-05T08:08:02.298Z,281.25
2018-07-05T08:09:02.229Z,286.88
2018-07-05T08:10:02.227Z,292.50
2018-07-05T08:11:02.120Z,303.75
2018-07-05T08:12:02.044Z,309.38
2018-07-05T08:13:01.956Z,320.63
2018-07-05T08:14:01.906Z,320.63
2018-07-05T08:15:01.890Z,326.25
2018-07-05T08:16:01.762Z,331.88
2018-07-05T08:17:01.721Z,320.63
2018-07-05T08:18:01.658Z,320.63
2018-07-05T08:19:01.566Z,320.63
2018-07-05T08:20:01.494Z,326.25
2018-07-05T08:21:01.427Z,320.63
2018-07-05T08:22:01.992Z,326.25
2018-07-05T08:23:01.348Z,326.25
2018-07-05T08:24:01.275Z,326.25
2018-07-05T08:25:01.167Z,326.25
2018-07-05T08:26:01.128Z,326.25
2018-07-05T08:27:01.084Z,331.88
2018-07-05T08:28:00.964Z,343.13
2018-07-05T08:29:00.902Z,354.38
2018-07-05T08:30:00.996Z,365.63
2018-07-05T08:31:00.803Z,371.25
2018-07-05T08:32:00.705Z,365.63
2018-07-05T08:33:00.706Z,371.25
2018-07-05T08:34:00.660Z,365.63
2018-07-05T08:35:00.511Z,348.75
2018-07-05T08:36:00.635Z,348.75
2018-07-05T08:37:01.022Z,343.13
2018-07-05T08:38:00.309Z,343.13
2018-07-05T08:39:00.239Z,354.38
2018-07-05T08:40:00.173Z,360.00
2018-07-05T08:41:00.104Z,365.63
2018-07-05T08:42:00.056Z,365.63
2018-07-05T08:43:00.011Z,365.63
2018-07-05T08:44:00.036Z,365.63
2018-07-05T08:44:59.875Z,360.00
2018-07-05T08:45:59.818Z,365.63
2018-07-05T08:46:59.711Z,371.25
2018-07-05T08:47:59.661Z,376.88
2018-07-05T08:48:59.642Z,365.63
2018-07-05T08:49:59.584Z,343.13
2018-07-05T08:50:59.464Z,343.13
2018-07-05T08:51:59.386Z,326.25
2018-07-05T08:52:59.352Z,320.63
2018-07-05T08:53:59.330Z,298.13
2018-07-05T08:54:59.266Z,281.25
2018-07-05T08:55:59.124Z,281.25
2018-07-05T08:56:59.074Z,286.88
2018-07-05T08:57:59.001Z,286.88
2018-07-05T08:58:58.934Z,292.50
2018-07-05T08:59:58.862Z,286.88
2018-07-05T09:00:58.794Z,286.88
2018-07-05T09:01:58.731Z,298.13
2018-07-05T09:02:58.665Z,292.50
2018-07-05T09:03:58.604Z,298.13
2018-07-05T09:04:58.537Z,298.13
2018-07-05T09:05:58.496Z,292.50
2018-07-05T09:06:58.407Z,292.50
2018-07-05T09:07:58.337Z,286.88
2018-07-05T09:08:58.275Z,286.88
2018-07-05T09:09:58.207Z,292.50
2018-07-05T09:10:58.147Z,298.13
2018-07-05T09:11:58.087Z,303.75
2018-07-05T09:12:58.029Z,309.38
2018-07-05T09:13:57.975Z,315.00
2018-07-05T09:14:57.879Z,326.25
2018-07-05T09:15:57.815Z,326.25
2018-07-05T09:16:57.748Z,337.50
2018-07-05T09:17:57.819Z,348.75
2018-07-05T09:18:57.618Z,360.00
2018-07-05T09:19:57.550Z,376.88
2018-07-05T09:20:57.490Z,365.63
2018-07-05T09:21:57.419Z,376.88
2018-07-05T09:22:57.380Z,388.13
2018-07-05T09:23:57.289Z,388.13
2018-07-05T09:24:57.222Z,393.75
2018-07-05T09:25:57.157Z,393.75
2018-07-05T09:26:57.093Z,399.38
2018-07-05T09:27:57.025Z,399.38
2018-07-05T09:28:57.566Z,405.00
2018-07-05T09:29:56.897Z,416.25
2018-07-05T09:30:56.836Z,421.88
2018-07-05T09:31:56.770Z,433.13
2018-07-05T09:32:56.706Z,427.50
2018-07-05T09:33:56.635Z,433.13
2018-07-05T09:34:56.561Z,444.38
2018-07-05T09:35:56.518Z,438.75
2018-07-05T09:36:56.455Z,438.75
2018-07-05T09:37:56.374Z,444.38
2018-07-05T09:38:56.313Z,461.25
2018-07-05T09:39:56.244Z,433.13
2018-07-05T09:40:56.190Z,416.25
2018-07-05T09:41:56.114Z,405.00
2018-07-05T09:42:56.049Z,410.63
2018-07-05T09:43:55.986Z,421.88
2018-07-05T09:44:56.407Z,433.13
2018-07-05T09:45:55.860Z,427.50
2018-07-05T09:46:55.799Z,444.38
2018-07-05T09:47:55.729Z,438.75
2018-07-05T09:48:55.664Z,438.75
2018-07-05T09:49:55.595Z,461.25
2018-07-05T09:50:55.537Z,483.75
2018-07-05T09:51:55.469Z,483.75
2018-07-05T09:52:55.404Z,511.88
2018-07-05T09:53:55.337Z,540.00
2018-07-05T09:54:55.271Z,585.00
2018-07-05T09:55:55.216Z,652.50
2018-07-05T09:56:55.144Z,630.00
2018-07-05T09:57:55.094Z,585.00
2018-07-05T09:58:55.016Z,556.88
2018-07-05T09:59:54.950Z,517.50
2018-07-05T10:00:54.888Z,483.75
2018-07-05T10:01:54.823Z,450.00
2018-07-05T10:02:54.757Z,438.75
2018-07-05T10:03:54.699Z,433.13
2018-07-05T10:04:54.630Z,427.50
2018-07-05T10:05:54.566Z,416.25
2018-07-05T10:06:54.503Z,416.25
2018-07-05T10:07:54.441Z,405.00
2018-07-05T10:08:54.374Z,399.38
2018-07-05T10:09:54.307Z,405.00
2018-07-05T10:10:54.242Z,416.25
2018-07-05T10:11:54.180Z,416.25
2018-07-05T10:12:54.120Z,416.25
2018-07-05T10:13:54.135Z,421.88
2018-07-05T10:14:53.985Z,421.88
2018-07-05T10:15:53.922Z,416.25
2018-07-05T10:16:53.861Z,421.88
2018-07-05T10:17:53.796Z,438.75
2018-07-05T10:18:53.794Z,495.00
2018-07-05T10:19:53.665Z,534.38
2018-07-05T10:20:53.602Z,568.13
2018-07-05T10:21:53.566Z,613.13
2018-07-05T10:22:53.475Z,635.63
2018-07-05T10:23:53.406Z,646.88
2018-07-05T10:24:53.348Z,506.25
2018-07-05T10:25:53.383Z,585.00
2018-07-05T10:26:53.245Z,624.38
2018-07-05T10:27:53.185Z,646.88
2018-07-05T10:28:53.115Z,731.25
2018-07-05T10:29:53.045Z,720.00
2018-07-05T10:30:52.990Z,691.88
2018-07-05T10:31:52.897Z,540.00
2018-07-05T10:32:52.917Z,618.75
2018-07-05T10:33:52.815Z,658.13
2018-07-05T10:34:52.708Z,663.75
2018-07-05T10:35:52.659Z,691.88
2018-07-05T10:36:52.611Z,714.38
2018-07-05T10:37:52.580Z,731.25
2018-07-05T10:38:52.445Z,736.88
2018-07-05T10:39:52.386Z,720.00
2018-07-05T10:40:52.384Z,708.75
2018-07-05T10:41:52.354Z,669.38
2018-07-05T10:42:52.209Z,630.00
2018-07-05T10:43:52.125Z,624.38
2018-07-05T10:44:52.117Z,669.38
2018-07-05T10:45:52.031Z,601.88
2018-07-05T10:46:51.942Z,658.13
2018-07-05T10:47:51.878Z,663.75
2018-07-05T10:48:51.813Z,624.38
2018-07-05T10:49:51.747Z,646.88
2018-07-05T10:50:51.699Z,596.25
2018-07-05T10:51:51.623Z,545.63
2018-07-05T10:52:51.557Z,511.88
2018-07-05T10:53:51.535Z,495.00
2018-07-05T10:54:51.428Z,506.25
2018-07-05T10:55:51.394Z,511.88
2018-07-05T10:56:51.304Z,528.75
2018-07-05T10:57:51.241Z,534.38
2018-07-05T10:58:51.173Z,630.00
2018-07-05T10:59:51.116Z,641.25
2018-07-05T11:00:51.096Z,641.25
2018-07-05T11:01:51.087Z,596.25
2018-07-05T11:02:50.939Z,556.88
2018-07-05T11:03:50.864Z,534.38
2018-07-05T11:04:50.803Z,528.75
2018-07-05T11:05:50.741Z,500.63
2018-07-05T11:06:50.675Z,517.50
2018-07-05T11:07:50.607Z,534.38
2018-07-05T11:08:50.551Z,601.88
2018-07-05T11:09:50.476Z,573.75
2018-07-05T11:10:50.437Z,573.75
2018-07-05T11:11:50.350Z,590.63
2018-07-05T11:12:50.294Z,613.13
2018-07-05T11:13:50.229Z,675.00
2018-07-05T11:14:50.241Z,658.13
2018-07-05T11:15:50.113Z,680.63
2018-07-05T11:16:50.033Z,680.63
2018-07-05T11:17:49.970Z,675.00
2018-07-05T11:18:49.910Z,736.88
2018-07-05T11:19:49.847Z,742.50
2018-07-05T11:20:49.843Z,753.75
2018-07-05T11:21:49.716Z,826.88
2018-07-05T11:22:49.656Z,1198.13
2018-07-05T11:23:49.592Z,1018.13
2018-07-05T11:24:49.533Z,916.88
2018-07-05T11:25:49.463Z,1006.88
2018-07-05T11:26:49.401Z,753.75
2018-07-05T11:27:49.339Z,585.00
2018-07-05T11:28:49.277Z,540.00
2018-07-05T11:29:49.212Z,523.13
2018-07-05T11:30:49.155Z,438.75
2018-07-05T11:31:49.093Z,450.00
2018-07-05T11:32:49.024Z,478.13
2018-07-05T11:33:48.963Z,517.50
2018-07-05T11:34:48.901Z,534.38
2018-07-05T11:35:48.844Z,590.63
2018-07-05T11:36:48.777Z,568.13
2018-07-05T11:37:48.716Z,579.38
2018-07-05T11:38:48.648Z,573.75
2018-07-05T11:39:48.585Z,579.38
2018-07-05T11:40:48.524Z,579.38
2018-07-05T11:41:48.469Z,601.88
2018-07-05T11:42:48.538Z,675.00
2018-07-05T11:43:48.335Z,630.00
2018-07-05T11:44:48.273Z,708.75
2018-07-05T11:45:48.210Z,646.88
2018-07-05T11:46:48.219Z,658.13
2018-07-05T11:47:48.100Z,669.38
2018-07-05T11:48:48.019Z,675.00
2018-07-05T11:49:47.954Z,703.13
2018-07-05T11:50:47.893Z,804.38
2018-07-05T11:51:47.831Z,675.00
2018-07-05T11:52:47.770Z,607.50
2018-07-05T11:53:47.704Z,601.88
2018-07-05T11:54:47.660Z,573.75
2018-07-05T11:55:47.582Z,585.00
2018-07-05T11:56:47.524Z,590.63
2018-07-05T11:57:47.452Z,601.88
2018-07-05T11:58:47.456Z,675.00
2018-07-05T11:59:47.327Z,641.25
2018-07-05T12:00:47.261Z,714.38
2018-07-05T12:01:47.197Z,781.88
2018-07-05T12:02:47.153Z,736.88
2018-07-05T12:03:47.074Z,714.38
2018-07-05T12:04:47.012Z,630.00
2018-07-05T12:05:46.943Z,607.50
2018-07-05T12:06:46.892Z,618.75
2018-07-05T12:07:46.827Z,646.88
2018-07-05T12:08:46.848Z,691.88
2018-07-05T12:09:46.714Z,742.50
2018-07-05T12:10:46.631Z,765.00
2018-07-05T12:11:46.575Z,725.63
2018-07-05T12:12:46.508Z,748.13
2018-07-05T12:13:46.444Z,748.13
2018-07-05T12:14:46.376Z,804.38
2018-07-05T12:15:46.313Z,798.75
2018-07-05T12:16:46.259Z,742.50
2018-07-05T12:17:46.194Z,759.38
2018-07-05T12:18:46.122Z,742.50
2018-07-05T12:19:46.085Z,731.25
2018-07-05T12:20:46.008Z,697.50
2018-07-05T12:21:45.929Z,663.75
2018-07-05T12:22:45.873Z,624.38
2018-07-05T12:23:45.819Z,573.75
2018-07-05T12:24:45.750Z,500.63
2018-07-05T12:25:45.682Z,433.13
2018-07-05T12:26:45.691Z,388.13
2018-07-05T12:27:45.557Z,371.25
2018-07-05T12:28:45.497Z,354.38
2018-07-05T12:29:45.432Z,354.38
2018-07-05T12:30:45.368Z,343.13
2018-07-05T12:31:45.307Z,343.13
2018-07-05T12:32:45.240Z,337.50
2018-07-05T12:33:45.185Z,337.50
2018-07-05T12:34:46.075Z,337.50
2018-07-05T12:35:45.046Z,343.13
2018-07-05T12:36:44.984Z,343.13
2018-07-05T12:37:44.933Z,337.50
2018-07-05T12:38:44.857Z,337.50
2018-07-05T12:39:45.282Z,343.13
2018-07-05T12:40:44.732Z,348.75
2018-07-05T12:41:44.665Z,343.13
2018-07-05T12:42:44.599Z,354.38
2018-07-05T12:43:44.533Z,354.38
2018-07-05T12:44:44.482Z,354.38
2018-07-05T12:45:44.445Z,348.75